Weather reports worldwide

Advertisment
Schmücke, Germany (10552): temperature & dewpoint: 19.03.2019 18:00:00 - 25.03.2019 18:00:00 (CET)Schmücke, Germany (10552): temperature 5cm & temperature -5cm: 19.03.2019 18:00:00 - 25.03.2019 18:00:00 (CET)Schmücke, Germany (10552): temperature -20cm & temperature -100cm: 19.03.2019 18:00:00 - 25.03.2019 18:00:00 (CET)Schmücke, Germany (10552): wind speed & gusts: 19.03.2019 18:00:00 - 25.03.2019 18:00:00 (CET)Schmücke, Germany (10552): wind direction: 19.03.2019 18:00:00 - 25.03.2019 18:00:00 (CET)Schmücke, Germany (10552): visibility: 19.03.2019 18:00:00 - 25.03.2019 18:00:00 (CET)Schmücke, Germany (10552): sunshine duration: 19.03.2019 18:00:00 - 25.03.2019 18:00:00 (CET)Schmücke, Germany (10552): precipitation: 19.03.2019 18:00:00 - 25.03.2019 18:00:00 (CET)
Date & Time tt [°C] td [°C] tt 5cm [°C] tt -5cm [°C] tt -20cm [°C] tt -100cm [°C] ff [km/h] ff [kn] fx [km/h] fx [kn] dd vv [km] sd [min] rr [mm]
25.03.2019 18:00:00 - - - - - - - - - - - - - -
25.03.2019 17:00:00 -0,1 -2,0 -0,1 0,0 0,4 1,7 16 9 39 21 NW 53 12 0,3
25.03.2019 16:00:00 -0,7 -1,8 -0,1 0,0 0,4 1,7 14 7 34 18 WNW 1,3 1 0,1
25.03.2019 15:00:00 -0,4 -1,7 -0,1 0,0 0,4 1,7 14 7 36 19 WNW 64 2 2,6
25.03.2019 14:00:00 -0,2 -1,8 -0,1 0,0 0,4 1,7 23 12 47 26 W 47 2 0,3
25.03.2019 13:00:00 0,0 -1,5 -0,1 0,0 0,4 1,7 19 10 34 19 WSW 17 8 0,2
25.03.2019 12:00:00 -0,4 -1,9 -0,1 0,0 0,4 1,7 17 9 37 20 W 27 2 0,0
25.03.2019 11:00:00 -0,6 -2,4 -0,1 0,0 0,4 1,7 18 10 46 25 W 34 29 0,0
25.03.2019 10:00:00 -1,5 -3,1 -0,1 0,0 0,4 1,7 26 14 45 24 W 20 18 0,0
25.03.2019 09:00:00 -2,0 -2,8 -0,1 0,0 0,4 1,7 24 13 45 24 W 10 0 1,9
25.03.2019 08:00:00 -2,6 -3,1 -0,1 0,0 0,4 1,7 19 10 31 17 WSW 2,1 0 0,6
25.03.2019 07:00:00 -2,6 -3,4 -0,1 0,0 0,4 1,7 16 9 34 18 WSW 1,4 0 0,1
25.03.2019 06:00:00 -2,4 -3,5 -0,1 0,0 0,4 1,7 15 8 24 13 SW 11 0 0,0
25.03.2019 05:00:00 -2,2 -3,4 -0,1 0,0 0,4 1,7 18 10 36 20 W 18 0 0,0
25.03.2019 04:00:00 -2,0 -3,5 -0,1 0,0 0,4 1,7 20 11 34 18 W 22 0 0,0
25.03.2019 03:00:00 -1,9 -3,5 -0,1 0,0 0,4 1,7 18 10 26 14 W 25 0 0,0
25.03.2019 02:00:00 -1,5 -3,1 -0,1 0,0 0,4 1,7 11 6 26 14 WNW 22 0 0,0
25.03.2019 01:00:00 -1,3 -2,8 -0,1 0,0 0,4 1,7 9 5 24 13 WNW 22 0 0,0
25.03.2019 00:00:00 -1,0 -2,6 -0,1 0,0 0,4 1,7 12 6 23 12 WSW 25 0 0,0
24.03.2019 23:00:00 0,2 -1,0 -0,1 0,0 0,4 1,7 8 5 19 10 NW 15 0 0,0
24.03.2019 22:00:00 1,0 0,3 -0,1 0,0 0,4 1,7 10 5 18 10 W 5 0 0,0
24.03.2019 21:00:00 1,3 0,8 -0,1 0,0 0,4 1,7 9 5 19 11 W 5 0 0,0
24.03.2019 20:00:00 0,7 0,1 -0,1 0,0 0,4 1,7 7 4 13 7 W 4,4 0 0,0
24.03.2019 19:00:00 1,5 0,8 -0,1 0,0 0,4 1,7 6 3 15 8 NW 2,5 0 0,0
24.03.2019 18:00:00 2,5 1,9 -0,1 0,0 0,4 1,7 8 4 20 11 NNW 4,7 0 0,0
24.03.2019 17:00:00 2,6 2,1 -0,1 0,0 0,4 1,7 9 5 20 11 N 1,4 0 0,0
24.03.2019 16:00:00 2,8 2,5 -0,1 0,0 0,3 1,7 6 4 14 8 N 0,1 0 0,0
24.03.2019 15:00:00 2,9 2,6 -0,1 0,0 0,4 1,7 7 4 15 8 NNE 0,1 0 0,0
24.03.2019 14:00:00 3,6 3,3 -0,1 0,0 0,3 1,7 6 3 10 6 NNE 0,1 0 0,0
24.03.2019 13:00:00 3,8 3,6 -0,1 0,0 0,3 1,7 5 3 12 6 E 0,1 0 0,0
24.03.2019 12:00:00 3,4 3,1 -0,1 0,0 0,4 1,7 7 4 16 9 NE 0,1 0 0,0
24.03.2019 11:00:00 3,2 2,9 -0,1 0,0 0,4 1,7 10 5 19 11 NE 0,1 0 0,0
24.03.2019 10:00:00 3,1 2,8 -0,1 0,0 0,4 1,7 14 8 22 12 E 0,1 0 0,0
24.03.2019 09:00:00 2,8 2,5 -0,1 0,0 0,4 1,7 12 7 24 13 ENE 0,1 0 0,0
24.03.2019 08:00:00 2,7 2,5 -0,1 0,0 0,3 1,7 14 7 26 14 ENE 0,1 0 0,0
24.03.2019 07:00:00 2,7 2,4 -0,1 0,0 0,3 1,7 16 9 29 15 ENE 0,1 0 0,0
24.03.2019 06:00:00 2,7 2,4 -0,1 0,0 0,3 1,7 19 10 35 19 ENE 0,1 0 0,0
24.03.2019 05:00:00 2,6 2,3 -0,1 0,0 0,3 1,7 18 10 31 17 ENE 0,3 0 0,0
24.03.2019 04:00:00 2,6 2,3 -0,1 0,0 0,3 1,7 20 11 36 19 ENE 0,8 0 0,0
24.03.2019 03:00:00 2,7 2,4 -0,1 0,0 0,3 1,7 21 11 35 19 ENE 0,4 0 0,0
24.03.2019 02:00:00 2,7 2,3 -0,1 0,0 0,3 1,6 22 12 36 20 ENE 0,3 0 0,0
24.03.2019 01:00:00 2,9 2,5 -0,1 0,0 0,3 1,6 22 12 35 19 ENE 0,3 0 0,0
24.03.2019 00:00:00 3,0 2,5 -0,1 0,0 0,3 1,6 22 12 36 19 NE 0,9 0 0,0
23.03.2019 23:00:00 3,1 2,3 -0,1 0,0 0,3 1,6 22 12 36 19 NE 3,8 0 0,0
23.03.2019 22:00:00 3,2 2,0 -0,1 0,0 0,3 1,7 20 11 33 18 NE 5 0 0,0
23.03.2019 21:00:00 3,8 2,0 -0,1 0,0 0,3 1,7 21 11 34 19 NE 7 0 0,0
23.03.2019 20:00:00 4,5 1,6 -0,1 0,0 0,3 1,7 17 9 29 16 NNE 7 0 0,0
23.03.2019 19:00:00 5,6 0,8 -0,1 0,0 0,3 1,7 15 8 32 17 NNE 11 0 0,0
23.03.2019 18:00:00 7,8 3,9 -0,1 0,0 0,3 1,7 14 8 28 15 NNE 7 59 0,0
23.03.2019 17:00:00 10,7 4,1 -0,1 0,0 0,3 1,7 13 7 24 13 N 15 60 0,0
23.03.2019 16:00:00 12,3 2,6 -0,1 0,0 0,3 1,7 13 7 23 12 N 33 58 0,0
23.03.2019 15:00:00 12,7 3,2 -0,1 0,0 0,3 1,7 8 5 19 10 N 33 60 0,0
23.03.2019 14:00:00 13,6 3,9 -0,1 0,0 0,4 1,7 7 4 17 9 NE 30 60 0,0
23.03.2019 13:00:00 13,5 3,7 -0,1 0,0 0,4 1,7 5 3 22 12 SE 28 60 0,0
23.03.2019 12:00:00 13,2 3,0 -0,1 0,0 0,4 1,7 7 4 23 12 S 37 60 0,0
23.03.2019 11:00:00 11,9 2,1 -0,1 0,0 0,4 1,7 8 5 17 9 SSW 33 60 0,0
23.03.2019 10:00:00 10,6 2,4 -0,1 0,0 0,4 1,7 10 5 17 9 SSW 28 60 0,0
23.03.2019 09:00:00 8,7 2,5 -0,1 0,0 0,4 1,7 6 4 10 6 SSW 40 60 0,0
23.03.2019 08:00:00 7,0 2,0 -0,1 0,0 0,4 1,7 10 6 19 10 SW 38 60 0,0
23.03.2019 07:00:00 6,1 1,4 -0,1 0,0 0,4 1,7 14 8 21 12 SW 33 18 0,0
23.03.2019 06:00:00 6,2 1,5 -0,1 0,0 0,4 1,7 12 6 24 13 SW 35 0 0,0
23.03.2019 05:00:00 6,9 1,2 -0,1 0,0 0,4 1,7 16 8 29 15 WSW 43 0 0,0
23.03.2019 04:00:00 6,3 2,0 -0,1 0,0 0,4 1,7 20 11 26 14 SW 43 0 0,0
23.03.2019 03:00:00 6,6 2,1 -0,1 0,0 0,4 1,7 19 10 27 15 WSW 46 0 0,0
23.03.2019 02:00:00 6,2 2,5 -0,1 0,0 0,4 1,7 18 10 24 13 WSW 47 0 0,0
23.03.2019 01:00:00 7,5 3,1 -0,1 0,0 0,4 1,7 16 8 27 15 SW 48 0 0,0
23.03.2019 00:00:00 8,6 3,2 -0,1 0,0 0,4 1,7 19 10 31 17 SSW 51 0 0,0
22.03.2019 23:00:00 8,9 3,2 -0,1 0,0 0,4 1,7 18 10 28 15 SSW 54 0 0,0
22.03.2019 22:00:00 9,3 3,3 -0,1 0,0 0,4 1,7 17 9 32 18 S 56 0 0,0
22.03.2019 21:00:00 9,5 3,1 -0,1 0,0 0,4 1,7 17 9 25 14 S 69 0 0,0
22.03.2019 20:00:00 9,9 3,5 -0,1 0,0 0,4 1,7 14 8 22 12 S 55 0 0,0
22.03.2019 19:00:00 10,7 3,2 -0,1 0,0 0,3 1,7 12 6 18 10 S 62 37 0,0
22.03.2019 18:00:00 12,0 3,6 -0,1 0,0 0,3 1,8 8 5 17 9 S 75 60 0,0
22.03.2019 17:00:00 14,0 4,6 -0,1 0,0 0,3 1,8 8 4 19 10 ESE 65 60 0,0
22.03.2019 16:00:00 14,2 4,7 -0,1 0,0 0,4 1,8 8 5 20 11 E 61 60 0,0
22.03.2019 15:00:00 14,0 4,5 -0,1 0,0 0,4 1,8 8 5 18 10 E 65 60 0,0
22.03.2019 14:00:00 14,8 3,1 -0,1 0,0 0,4 1,8 6 4 23 12 S 44 60 0,0
22.03.2019 13:00:00 13,4 3,4 -0,1 0,1 0,4 1,8 8 4 17 9 E 44 60 0,0
22.03.2019 12:00:00 12,4 3,3 -0,1 0,1 0,4 1,8 7 4 17 9 ESE 61 60 0,0
22.03.2019 11:00:00 11,6 3,2 -0,1 0,0 0,4 1,8 8 4 18 10 E 50 60 0,0
22.03.2019 10:00:00 10,7 2,7 -0,1 0,0 0,4 1,8 10 5 18 10 ESE 47 60 0,0
22.03.2019 09:00:00 9,0 2,3 -0,1 0,0 0,4 1,8 9 5 18 10 ESE 41 48 0,0
22.03.2019 08:00:00 6,7 1,9 -0,1 0,0 0,4 1,8 12 7 19 10 ESE 30 0 0,0
22.03.2019 07:00:00 5,6 1,7 -0,1 0,0 0,4 1,8 10 5 17 9 ESE 34 0 0,0
22.03.2019 06:00:00 5,7 1,0 -0,1 0,0 0,4 1,8 10 6 16 9 ESE 40 0 0,0
22.03.2019 05:00:00 5,6 1,4 -0,1 0,0 0,4 1,8 9 5 17 9 ESE 39 0 0,0
22.03.2019 04:00:00 5,3 2,3 -0,1 0,0 0,4 1,8 10 5 18 10 E 23 0 0,0
22.03.2019 03:00:00 4,8 2,1 -0,1 0,0 0,4 1,8 12 7 20 11 E 26 0 0,0
22.03.2019 02:00:00 5,1 2,0 -0,1 0,0 0,4 1,8 14 8 21 11 ENE 34 0 0,0
22.03.2019 01:00:00 5,1 1,7 -0,1 0,0 0,4 1,8 14 8 18 10 ENE 45 0 0,0
22.03.2019 00:00:00 5,1 2,0 -0,1 0,0 0,4 1,8 14 8 19 10 ENE 31 0 0,0
21.03.2019 23:00:00 4,7 2,3 -0,1 0,0 0,4 1,8 16 8 19 10 ENE 20 0 0,0
21.03.2019 22:00:00 5,3 2,3 -0,1 0,0 0,4 1,8 14 8 18 10 NE 16 0 0,0
21.03.2019 21:00:00 5,3 1,7 -0,1 0,0 0,4 1,8 13 7 18 10 NE 22 0 0,0
21.03.2019 20:00:00 5,7 1,8 -0,1 0,0 0,4 1,8 13 7 18 10 NE 24 0 0,0
21.03.2019 19:00:00 6,3 2,2 -0,1 0,0 0,4 1,8 11 6 17 9 NE 30 32 0,0
21.03.2019 18:00:00 8,0 2,2 -0,1 0,0 0,4 1,8 9 5 15 8 NE 41 60 0,0
21.03.2019 17:00:00 10,3 2,4 -0,1 0,0 0,4 1,8 8 4 15 8 NE 42 60 0,0
21.03.2019 16:00:00 10,7 2,2 -0,1 0,0 0,4 1,8 9 5 17 9 NE 59 60 0,0
21.03.2019 15:00:00 11,1 2,2 -0,1 0,1 0,4 1,8 7 4 16 9 NE 54 60 0,0
21.03.2019 14:00:00 11,4 2,0 -0,1 0,1 0,4 1,8 6 4 14 8 ENE 43 60 0,0
21.03.2019 13:00:00 10,2 1,5 -0,1 0,0 0,4 1,8 6 4 16 9 ENE 43 60 0,0
21.03.2019 12:00:00 9,5 1,1 -0,1 0,1 0,4 1,8 7 4 16 9 NE 49 60 0,0
21.03.2019 11:00:00 9,2 -0,3 -0,1 0,0 0,4 1,8 4 2 12 6 SW 52 60 0,0
21.03.2019 10:00:00 7,3 -0,6 -0,1 0,0 0,4 1,8 6 3 13 7 SW 54 60 0,0
21.03.2019 09:00:00 5,1 -0,9 -0,1 0,0 0,4 1,8 7 4 9 5 SSW 34 60 0,0
21.03.2019 08:00:00 3,1 -1,3 -0,1 0,0 0,4 1,8 5 3 8 4 S 40 60 0,0
21.03.2019 07:00:00 1,3 -1,5 -0,1 0,0 0,4 1,8 3 2 6 3 S 45 17 0,0
21.03.2019 06:00:00 0,8 -1,6 -0,1 0,0 0,4 1,8 3 2 10 5 ESE 43 0 0,0
21.03.2019 05:00:00 1,3 -2,1 -0,1 0,0 0,4 1,8 9 5 12 6 N 39 0 0,0
21.03.2019 04:00:00 1,5 -2,7 -0,1 0,0 0,4 1,8 8 4 10 6 N 48 0 0,0
21.03.2019 03:00:00 1,2 -2,1 -0,1 0,0 0,4 1,8 8 4 12 6 N 44 0 0,0
21.03.2019 02:00:00 1,1 -2,5 -0,1 0,0 0,4 1,8 4 2 8 4 NW 44 0 0,0
21.03.2019 01:00:00 1,2 -3,0 -0,1 0,0 0,4 1,8 6 3 9 5 WSW 45 0 0,0
21.03.2019 00:00:00 1,1 -2,7 -0,1 0,0 0,4 1,8 6 3 12 7 W 37 0 0,0
20.03.2019 23:00:00 1,5 -2,8 -0,1 0,0 0,4 1,8 10 5 14 7 WSW 34 0 0,0
20.03.2019 22:00:00 1,1 -2,7 -0,1 0,0 0,4 1,8 10 5 14 8 W 34 0 0,0
20.03.2019 21:00:00 1,5 -3,1 -0,1 0,0 0,4 1,8 9 5 15 8 W 43 0 0,0
20.03.2019 20:00:00 1,6 -3,1 -0,1 0,0 0,4 1,8 11 6 16 9 W 39 0 0,0
20.03.2019 19:00:00 2,3 -2,6 -0,1 0,0 0,4 1,8 11 6 14 8 W 40 20 0,0
20.03.2019 18:00:00 4,5 -2,1 -0,1 0,0 0,4 1,8 9 5 17 9 W 37 60 0,0
20.03.2019 17:00:00 6,8 -3,8 -0,1 0,0 0,4 1,8 5 3 14 8 W 48 53 0,0
20.03.2019 16:00:00 6,6 -3,6 -0,1 0,0 0,4 1,8 6 3 20 11 W 55 60 0,0
20.03.2019 15:00:00 6,2 -4,3 -0,1 0,0 0,4 1,8 13 7 25 14 SW 47 60 0,0
20.03.2019 14:00:00 5,7 -3,4 -0,1 0,0 0,4 1,8 10 6 23 12 W 53 60 0,0
20.03.2019 13:00:00 5,5 -2,8 -0,1 0,0 0,4 1,8 11 6 20 11 SSW 49 60 0,0
20.03.2019 12:00:00 4,5 -2,1 -0,1 0,0 0,4 1,8 8 4 18 10 SSW 48 60 0,0
20.03.2019 11:00:00 3,2 -2,9 -0,1 0,0 0,4 1,8 8 5 18 10 SSW 44 60 0,0
20.03.2019 10:00:00 1,9 -3,9 -0,1 0,0 0,4 1,8 7 4 15 8 WSW 50 60 0,0
20.03.2019 09:00:00 -0,5 -3,5 -0,1 0,0 0,4 1,8 10 5 15 8 SW 41 60 0,0
20.03.2019 08:00:00 -2,2 -4,3 -0,1 0,0 0,4 1,8 11 6 18 10 SW 34 60 0,0
20.03.2019 07:00:00 -3,2 -5,0 -0,1 0,0 0,4 1,8 12 7 20 11 WSW 31 17 0,0
20.03.2019 06:00:00 -3,0 -5,3 -0,1 0,0 0,4 1,8 13 7 22 12 WSW 35 0 0,0
20.03.2019 05:00:00 -3,4 -5,3 -0,1 0,0 0,4 1,8 13 7 16 9 WSW 38 0 0,0
20.03.2019 04:00:00 -3,6 -4,9 -0,1 0,0 0,4 1,8 9 5 16 8 WSW 35 0 0,0
20.03.2019 03:00:00 -3,5 -4,6 -0,1 0,0 0,4 1,8 7 4 13 7 WSW 34 0 0,0
20.03.2019 02:00:00 -3,1 -4,3 -0,1 0,0 0,4 1,8 8 4 15 8 W 34 0 0,0
20.03.2019 01:00:00 -3,1 -4,9 -0,1 0,0 0,4 1,8 7 4 12 6 NNW 38 0 0,0
20.03.2019 00:00:00 -2,8 -4,4 -0,1 0,0 0,4 1,8 6 3 10 6 NW 48 0 0,0
19.03.2019 23:00:00 -2,3 -4,6 -0,1 0,0 0,4 1,8 8 5 11 6 NNW 46 0 0,0
19.03.2019 22:00:00 -2,0 -5,0 -0,1 0,0 0,4 1,8 9 5 13 7 NNW 43 0 0,0
19.03.2019 21:00:00 -1,8 -4,3 -0,1 0,0 0,4 1,8 8 5 13 7 NNW 39 0 0,0
19.03.2019 20:00:00 -1,3 -4,3 -0,1 0,0 0,4 1,8 8 4 13 7 N 43 0 0,0
19.03.2019 19:00:00 -1,6 -3,5 -0,1 0,0 0,4 1,8 7 4 11 6 NNW 44 10 0,0
19.03.2019 18:00:00 -0,3 -2,5 -0,1 0,0 0,4 1,8 4 2 10 5 NNW 42 20 0,0

tt = temperature
td = dewpoint
tt 5cm = temperature 5cm
tt -5cm = temperature -5cm
tt -20cm = temperature -20cm
tt -100cm = temperature -100cm
ff = wind speed
fx = gusts
dd = wind direction
vv = visibility
sd = sunshine duration
rr = precipitation

Next stations